sensor_id;sensor_type;location;lat;lon;timestamp;P1;durP1;ratioP1;P2;durP2;ratioP2
29196;SDS011;62796;42.654;23.316;2023-07-29T00:00:45;4.97;;;3.35;;
29196;SDS011;62796;42.654;23.316;2023-07-29T00:03:11;6.45;;;3.38;;
29196;SDS011;62796;42.654;23.316;2023-07-29T00:05:36;6.07;;;3.03;;
29196;SDS011;62796;42.654;23.316;2023-07-29T00:08:02;5.40;;;3.55;;
29196;SDS011;62796;42.654;23.316;2023-07-29T00:10:28;5.45;;;3.78;;
29196;SDS011;62796;42.654;23.316;2023-07-29T00:12:54;4.88;;;3.58;;
29196;SDS011;62796;42.654;23.316;2023-07-29T00:15:19;9.00;;;3.33;;
29196;SDS011;62796;42.654;23.316;2023-07-29T00:17:45;5.97;;;3.55;;
29196;SDS011;62796;42.654;23.316;2023-07-29T00:20:10;8.13;;;4.35;;
29196;SDS011;62796;42.654;23.316;2023-07-29T00:22:36;5.35;;;4.15;;
29196;SDS011;62796;42.654;23.316;2023-07-29T00:25:01;4.70;;;3.70;;
29196;SDS011;62796;42.654;23.316;2023-07-29T00:27:27;8.32;;;4.00;;
29196;SDS011;62796;42.654;23.316;2023-07-29T00:29:52;5.40;;;3.80;;
29196;SDS011;62796;42.654;23.316;2023-07-29T00:32:17;7.68;;;4.07;;
29196;SDS011;62796;42.654;23.316;2023-07-29T00:34:43;6.53;;;3.85;;
29196;SDS011;62796;42.654;23.316;2023-07-29T00:37:09;6.57;;;3.50;;
29196;SDS011;62796;42.654;23.316;2023-07-29T00:39:35;5.30;;;3.90;;
29196;SDS011;62796;42.654;23.316;2023-07-29T00:42:02;6.72;;;3.75;;
29196;SDS011;62796;42.654;23.316;2023-07-29T00:44:27;6.03;;;3.92;;
29196;SDS011;62796;42.654;23.316;2023-07-29T00:46:53;8.85;;;4.60;;
29196;SDS011;62796;42.654;23.316;2023-07-29T00:49:20;6.30;;;3.90;;
29196;SDS011;62796;42.654;23.316;2023-07-29T00:51:46;4.68;;;3.88;;
29196;SDS011;62796;42.654;23.316;2023-07-29T00:54:12;5.28;;;3.78;;
29196;SDS011;62796;42.654;23.316;2023-07-29T00:56:38;8.15;;;3.60;;
29196;SDS011;62796;42.654;23.316;2023-07-29T00:59:03;5.97;;;4.03;;
29196;SDS011;62796;42.654;23.316;2023-07-29T01:01:29;5.68;;;3.65;;
29196;SDS011;62796;42.654;23.316;2023-07-29T01:03:55;8.45;;;4.10;;
29196;SDS011;62796;42.654;23.316;2023-07-29T01:16:56;8.20;;;4.00;;
29196;SDS011;62796;42.654;23.316;2023-07-29T01:19:42;5.32;;;4.03;;
29196;SDS011;62796;42.654;23.316;2023-07-29T01:22:20;5.55;;;3.90;;
29196;SDS011;62796;42.654;23.316;2023-07-29T01:24:46;6.03;;;4.05;;
29196;SDS011;62796;42.654;23.316;2023-07-29T01:27:11;6.10;;;4.10;;
29196;SDS011;62796;42.654;23.316;2023-07-29T01:29:37;4.88;;;3.92;;
29196;SDS011;62796;42.654;23.316;2023-07-29T01:32:05;5.70;;;4.00;;
29196;SDS011;62796;42.654;23.316;2023-07-29T01:34:45;8.00;;;4.55;;
29196;SDS011;62796;42.654;23.316;2023-07-29T01:37:19;7.45;;;4.05;;
29196;SDS011;62796;42.654;23.316;2023-07-29T01:39:50;7.88;;;4.35;;
29196;SDS011;62796;42.654;23.316;2023-07-29T01:42:21;10.90;;;4.68;;
29196;SDS011;62796;42.654;23.316;2023-07-29T01:44:47;7.95;;;4.30;;
29196;SDS011;62796;42.654;23.316;2023-07-29T01:47:13;6.22;;;3.85;;
29196;SDS011;62796;42.654;23.316;2023-07-29T01:49:38;5.78;;;4.57;;
29196;SDS011;62796;42.654;23.316;2023-07-29T01:52:03;6.25;;;4.55;;
29196;SDS011;62796;42.654;23.316;2023-07-29T01:54:29;6.70;;;4.35;;
29196;SDS011;62796;42.654;23.316;2023-07-29T01:56:54;8.00;;;4.90;;
29196;SDS011;62796;42.654;23.316;2023-07-29T01:59:20;7.93;;;4.25;;
29196;SDS011;62796;42.654;23.316;2023-07-29T02:01:45;10.10;;;4.13;;
29196;SDS011;62796;42.654;23.316;2023-07-29T02:04:11;9.48;;;4.30;;
29196;SDS011;62796;42.654;23.316;2023-07-29T02:06:37;8.70;;;4.25;;
29196;SDS011;62796;42.654;23.316;2023-07-29T02:09:02;7.93;;;4.75;;
29196;SDS011;62796;42.654;23.316;2023-07-29T02:11:29;8.05;;;4.88;;
29196;SDS011;62796;42.654;23.316;2023-07-29T02:13:55;6.45;;;4.40;;
29196;SDS011;62796;42.654;23.316;2023-07-29T02:16:21;8.15;;;4.05;;
29196;SDS011;62796;42.654;23.316;2023-07-29T02:18:47;5.95;;;4.28;;
29196;SDS011;62796;42.654;23.316;2023-07-29T02:21:14;7.45;;;4.35;;
29196;SDS011;62796;42.654;23.316;2023-07-29T02:23:40;8.60;;;4.68;;
29196;SDS011;62796;42.654;23.316;2023-07-29T02:26:05;9.50;;;4.53;;
29196;SDS011;62796;42.654;23.316;2023-07-29T02:28:31;7.75;;;4.47;;
29196;SDS011;62796;42.654;23.316;2023-07-29T02:31:09;8.18;;;4.70;;
29196;SDS011;62796;42.654;23.316;2023-07-29T02:33:39;5.45;;;4.70;;
29196;SDS011;62796;42.654;23.316;2023-07-29T02:36:04;5.97;;;4.22;;
29196;SDS011;62796;42.654;23.316;2023-07-29T02:38:30;6.57;;;4.78;;
29196;SDS011;62796;42.654;23.316;2023-07-29T02:40:55;4.60;;;4.15;;
29196;SDS011;62796;42.654;23.316;2023-07-29T02:43:20;7.40;;;4.55;;
29196;SDS011;62796;42.654;23.316;2023-07-29T02:45:46;9.32;;;4.78;;
29196;SDS011;62796;42.654;23.316;2023-07-29T02:48:11;8.48;;;4.70;;
29196;SDS011;62796;42.654;23.316;2023-07-29T02:50:37;7.18;;;4.28;;
29196;SDS011;62796;42.654;23.316;2023-07-29T02:53:02;8.57;;;4.30;;
29196;SDS011;62796;42.654;23.316;2023-07-29T02:55:28;7.20;;;4.28;;
29196;SDS011;62796;42.654;23.316;2023-07-29T02:57:53;6.75;;;4.82;;
29196;SDS011;62796;42.654;23.316;2023-07-29T03:00:19;10.15;;;4.70;;
29196;SDS011;62796;42.654;23.316;2023-07-29T03:02:44;11.90;;;5.13;;
29196;SDS011;62796;42.654;23.316;2023-07-29T03:05:10;11.38;;;5.05;;
29196;SDS011;62796;42.654;23.316;2023-07-29T03:07:35;12.07;;;5.00;;
29196;SDS011;62796;42.654;23.316;2023-07-29T03:10:00;6.63;;;4.63;;
29196;SDS011;62796;42.654;23.316;2023-07-29T03:12:26;7.50;;;4.70;;
29196;SDS011;62796;42.654;23.316;2023-07-29T03:14:52;6.03;;;4.57;;
29196;SDS011;62796;42.654;23.316;2023-07-29T03:17:17;8.20;;;5.20;;
29196;SDS011;62796;42.654;23.316;2023-07-29T03:19:42;5.53;;;4.82;;
29196;SDS011;62796;42.654;23.316;2023-07-29T03:22:08;6.70;;;4.65;;
29196;SDS011;62796;42.654;23.316;2023-07-29T03:24:33;6.15;;;5.10;;
29196;SDS011;62796;42.654;23.316;2023-07-29T03:26:59;8.27;;;5.18;;
29196;SDS011;62796;42.654;23.316;2023-07-29T03:29:24;8.90;;;5.20;;
29196;SDS011;62796;42.654;23.316;2023-07-29T03:31:50;10.93;;;5.28;;
29196;SDS011;62796;42.654;23.316;2023-07-29T03:34:15;8.10;;;4.97;;
29196;SDS011;62796;42.654;23.316;2023-07-29T03:36:40;8.75;;;4.75;;
29196;SDS011;62796;42.654;23.316;2023-07-29T03:39:06;7.65;;;4.95;;
29196;SDS011;62796;42.654;23.316;2023-07-29T03:41:32;6.60;;;5.00;;
29196;SDS011;62796;42.654;23.316;2023-07-29T03:43:58;9.13;;;5.40;;
29196;SDS011;62796;42.654;23.316;2023-07-29T03:46:24;10.40;;;5.10;;
29196;SDS011;62796;42.654;23.316;2023-07-29T03:48:50;9.18;;;5.47;;
29196;SDS011;62796;42.654;23.316;2023-07-29T03:51:15;8.32;;;5.22;;
29196;SDS011;62796;42.654;23.316;2023-07-29T03:53:41;7.03;;;4.72;;
29196;SDS011;62796;42.654;23.316;2023-07-29T03:56:06;7.38;;;4.88;;
29196;SDS011;62796;42.654;23.316;2023-07-29T03:58:32;7.53;;;5.40;;
29196;SDS011;62796;42.654;23.316;2023-07-29T04:00:58;7.40;;;5.38;;
29196;SDS011;62796;42.654;23.316;2023-07-29T04:03:24;8.50;;;5.10;;
29196;SDS011;62796;42.654;23.316;2023-07-29T04:05:49;7.50;;;4.95;;
29196;SDS011;62796;42.654;23.316;2023-07-29T04:08:14;6.90;;;4.65;;
29196;SDS011;62796;42.654;23.316;2023-07-29T04:10:40;6.57;;;5.38;;
29196;SDS011;62796;42.654;23.316;2023-07-29T04:13:05;8.07;;;4.50;;
29196;SDS011;62796;42.654;23.316;2023-07-29T04:15:31;9.10;;;4.80;;
29196;SDS011;62796;42.654;23.316;2023-07-29T04:17:56;11.55;;;4.93;;
29196;SDS011;62796;42.654;23.316;2023-07-29T04:20:22;9.63;;;5.32;;
29196;SDS011;62796;42.654;23.316;2023-07-29T04:22:47;9.07;;;5.20;;
29196;SDS011;62796;42.654;23.316;2023-07-29T04:25:13;6.82;;;5.20;;
29196;SDS011;62796;42.654;23.316;2023-07-29T04:27:38;8.25;;;5.20;;
29196;SDS011;62796;42.654;23.316;2023-07-29T04:30:04;8.52;;;5.68;;
29196;SDS011;62796;42.654;23.316;2023-07-29T04:32:30;10.63;;;5.85;;
29196;SDS011;62796;42.654;23.316;2023-07-29T04:34:56;9.15;;;5.40;;
29196;SDS011;62796;42.654;23.316;2023-07-29T04:37:21;7.45;;;5.47;;
29196;SDS011;62796;42.654;23.316;2023-07-29T04:39:47;8.43;;;5.00;;
29196;SDS011;62796;42.654;23.316;2023-07-29T04:42:12;9.77;;;4.95;;
29196;SDS011;62796;42.654;23.316;2023-07-29T04:44:37;7.00;;;4.80;;
29196;SDS011;62796;42.654;23.316;2023-07-29T04:47:03;6.18;;;5.03;;
29196;SDS011;62796;42.654;23.316;2023-07-29T04:49:29;8.90;;;5.38;;
29196;SDS011;62796;42.654;23.316;2023-07-29T04:51:54;10.07;;;5.28;;
29196;SDS011;62796;42.654;23.316;2023-07-29T04:54:19;7.75;;;4.88;;
29196;SDS011;62796;42.654;23.316;2023-07-29T04:56:46;6.65;;;5.47;;
29196;SDS011;62796;42.654;23.316;2023-07-29T04:59:12;9.02;;;5.03;;
29196;SDS011;62796;42.654;23.316;2023-07-29T05:01:38;8.13;;;5.38;;
29196;SDS011;62796;42.654;23.316;2023-07-29T05:04:03;9.15;;;5.20;;
29196;SDS011;62796;42.654;23.316;2023-07-29T05:06:29;7.45;;;5.20;;
29196;SDS011;62796;42.654;23.316;2023-07-29T05:08:56;10.13;;;5.45;;
29196;SDS011;62796;42.654;23.316;2023-07-29T05:11:22;9.13;;;5.35;;
29196;SDS011;62796;42.654;23.316;2023-07-29T05:13:50;6.50;;;4.85;;
29196;SDS011;62796;42.654;23.316;2023-07-29T05:16:15;9.68;;;4.80;;
29196;SDS011;62796;42.654;23.316;2023-07-29T05:18:41;9.68;;;5.00;;
29196;SDS011;62796;42.654;23.316;2023-07-29T05:21:06;7.88;;;5.03;;
29196;SDS011;62796;42.654;23.316;2023-07-29T05:23:33;9.55;;;6.07;;
29196;SDS011;62796;42.654;23.316;2023-07-29T05:25:59;6.50;;;5.22;;
29196;SDS011;62796;42.654;23.316;2023-07-29T05:28:24;7.13;;;5.25;;
29196;SDS011;62796;42.654;23.316;2023-07-29T05:30:49;7.40;;;5.30;;
29196;SDS011;62796;42.654;23.316;2023-07-29T05:33:15;9.63;;;5.60;;
29196;SDS011;62796;42.654;23.316;2023-07-29T05:35:40;7.80;;;5.50;;
29196;SDS011;62796;42.654;23.316;2023-07-29T05:38:05;11.02;;;5.78;;
29196;SDS011;62796;42.654;23.316;2023-07-29T05:40:33;7.95;;;5.47;;
29196;SDS011;62796;42.654;23.316;2023-07-29T05:42:58;11.85;;;5.80;;
29196;SDS011;62796;42.654;23.316;2023-07-29T05:45:24;12.35;;;5.43;;
29196;SDS011;62796;42.654;23.316;2023-07-29T05:47:49;13.40;;;6.15;;
29196;SDS011;62796;42.654;23.316;2023-07-29T05:50:15;5.90;;;4.70;;
29196;SDS011;62796;42.654;23.316;2023-07-29T05:52:41;7.38;;;4.90;;
29196;SDS011;62796;42.654;23.316;2023-07-29T05:55:06;9.30;;;4.70;;
29196;SDS011;62796;42.654;23.316;2023-07-29T05:57:32;7.43;;;5.30;;
29196;SDS011;62796;42.654;23.316;2023-07-29T05:59:57;6.45;;;4.78;;
29196;SDS011;62796;42.654;23.316;2023-07-29T06:02:23;8.65;;;5.10;;
29196;SDS011;62796;42.654;23.316;2023-07-29T06:04:48;5.78;;;4.47;;
29196;SDS011;62796;42.654;23.316;2023-07-29T06:07:14;9.00;;;4.72;;
29196;SDS011;62796;42.654;23.316;2023-07-29T06:09:39;8.68;;;5.22;;
29196;SDS011;62796;42.654;23.316;2023-07-29T06:12:05;9.27;;;5.45;;
29196;SDS011;62796;42.654;23.316;2023-07-29T06:14:31;8.48;;;4.88;;
29196;SDS011;62796;42.654;23.316;2023-07-29T06:16:56;7.05;;;5.07;;
29196;SDS011;62796;42.654;23.316;2023-07-29T06:19:21;16.60;;;12.38;;
29196;SDS011;62796;42.654;23.316;2023-07-29T06:21:48;11.30;;;8.85;;
29196;SDS011;62796;42.654;23.316;2023-07-29T06:24:13;8.00;;;5.72;;
29196;SDS011;62796;42.654;23.316;2023-07-29T06:26:39;7.13;;;4.85;;
29196;SDS011;62796;42.654;23.316;2023-07-29T06:29:04;8.65;;;4.93;;
29196;SDS011;62796;42.654;23.316;2023-07-29T06:31:30;6.10;;;5.13;;
29196;SDS011;62796;42.654;23.316;2023-07-29T06:33:57;10.10;;;5.28;;
29196;SDS011;62796;42.654;23.316;2023-07-29T06:36:23;6.72;;;4.82;;
29196;SDS011;62796;42.654;23.316;2023-07-29T06:38:48;5.05;;;3.88;;
29196;SDS011;62796;42.654;23.316;2023-07-29T06:41:13;5.47;;;4.18;;
29196;SDS011;62796;42.654;23.316;2023-07-29T06:43:39;6.68;;;4.70;;
29196;SDS011;62796;42.654;23.316;2023-07-29T06:46:04;11.63;;;4.70;;
29196;SDS011;62796;42.654;23.316;2023-07-29T06:48:30;6.22;;;4.57;;
29196;SDS011;62796;42.654;23.316;2023-07-29T06:50:55;9.27;;;4.57;;
29196;SDS011;62796;42.654;23.316;2023-07-29T06:53:25;8.07;;;4.80;;
29196;SDS011;62796;42.654;23.316;2023-07-29T06:55:50;8.50;;;4.57;;
29196;SDS011;62796;42.654;23.316;2023-07-29T06:58:16;7.97;;;4.85;;
29196;SDS011;62796;42.654;23.316;2023-07-29T07:00:41;5.50;;;4.70;;
29196;SDS011;62796;42.654;23.316;2023-07-29T07:03:07;5.45;;;4.32;;
29196;SDS011;62796;42.654;23.316;2023-07-29T07:05:32;7.65;;;4.63;;
29196;SDS011;62796;42.654;23.316;2023-07-29T07:07:57;7.35;;;4.47;;
29196;SDS011;62796;42.654;23.316;2023-07-29T07:10:23;10.80;;;4.75;;
29196;SDS011;62796;42.654;23.316;2023-07-29T07:12:48;6.22;;;4.55;;
29196;SDS011;62796;42.654;23.316;2023-07-29T07:15:13;8.30;;;4.45;;
29196;SDS011;62796;42.654;23.316;2023-07-29T07:17:39;11.73;;;4.35;;
29196;SDS011;62796;42.654;23.316;2023-07-29T07:20:04;9.50;;;4.43;;
29196;SDS011;62796;42.654;23.316;2023-07-29T07:22:30;8.57;;;4.55;;
29196;SDS011;62796;42.654;23.316;2023-07-29T07:24:56;9.63;;;4.22;;
29196;SDS011;62796;42.654;23.316;2023-07-29T07:27:21;7.32;;;4.50;;
29196;SDS011;62796;42.654;23.316;2023-07-29T07:29:47;5.25;;;3.50;;
29196;SDS011;62796;42.654;23.316;2023-07-29T07:32:12;6.22;;;3.60;;
29196;SDS011;62796;42.654;23.316;2023-07-29T07:34:37;6.57;;;3.80;;
29196;SDS011;62796;42.654;23.316;2023-07-29T07:37:03;8.90;;;4.00;;
29196;SDS011;62796;42.654;23.316;2023-07-29T07:39:29;6.05;;;4.00;;
29196;SDS011;62796;42.654;23.316;2023-07-29T07:41:55;6.50;;;4.15;;
29196;SDS011;62796;42.654;23.316;2023-07-29T07:44:20;9.23;;;4.72;;
29196;SDS011;62796;42.654;23.316;2023-07-29T07:46:46;6.82;;;4.30;;
29196;SDS011;62796;42.654;23.316;2023-07-29T07:49:11;5.47;;;3.60;;
29196;SDS011;62796;42.654;23.316;2023-07-29T07:51:38;8.52;;;4.00;;
29196;SDS011;62796;42.654;23.316;2023-07-29T07:54:03;8.10;;;4.10;;
29196;SDS011;62796;42.654;23.316;2023-07-29T07:56:29;6.65;;;4.47;;
29196;SDS011;62796;42.654;23.316;2023-07-29T07:58:54;8.18;;;4.13;;
29196;SDS011;62796;42.654;23.316;2023-07-29T08:01:19;6.95;;;4.57;;
29196;SDS011;62796;42.654;23.316;2023-07-29T08:03:45;5.43;;;3.97;;
29196;SDS011;62796;42.654;23.316;2023-07-29T08:06:10;8.60;;;3.95;;
29196;SDS011;62796;42.654;23.316;2023-07-29T08:08:35;7.53;;;4.55;;
29196;SDS011;62796;42.654;23.316;2023-07-29T08:11:01;10.25;;;4.72;;
29196;SDS011;62796;42.654;23.316;2023-07-29T08:13:26;4.90;;;4.03;;
29196;SDS011;62796;42.654;23.316;2023-07-29T08:15:52;6.55;;;4.00;;
29196;SDS011;62796;42.654;23.316;2023-07-29T08:18:18;7.38;;;4.55;;
29196;SDS011;62796;42.654;23.316;2023-07-29T08:20:58;5.38;;;4.47;;
29196;SDS011;62796;42.654;23.316;2023-07-29T08:23:24;8.93;;;4.40;;
29196;SDS011;62796;42.654;23.316;2023-07-29T08:25:52;6.85;;;4.30;;
29196;SDS011;62796;42.654;23.316;2023-07-29T08:28:26;10.50;;;4.53;;
29196;SDS011;62796;42.654;23.316;2023-07-29T08:30:55;8.13;;;4.57;;
29196;SDS011;62796;42.654;23.316;2023-07-29T08:33:21;6.07;;;4.13;;
29196;SDS011;62796;42.654;23.316;2023-07-29T08:35:46;6.80;;;4.53;;
29196;SDS011;62796;42.654;23.316;2023-07-29T08:38:12;9.63;;;4.57;;
29196;SDS011;62796;42.654;23.316;2023-07-29T08:40:40;10.75;;;4.47;;
29196;SDS011;62796;42.654;23.316;2023-07-29T08:43:09;4.80;;;4.30;;
29196;SDS011;62796;42.654;23.316;2023-07-29T08:45:39;12.25;;;5.18;;
29196;SDS011;62796;42.654;23.316;2023-07-29T08:48:07;7.93;;;3.90;;
29196;SDS011;62796;42.654;23.316;2023-07-29T08:50:35;4.85;;;3.67;;
29196;SDS011;62796;42.654;23.316;2023-07-29T08:53:03;5.80;;;3.55;;
29196;SDS011;62796;42.654;23.316;2023-07-29T08:55:30;10.73;;;3.97;;
29196;SDS011;62796;42.654;23.316;2023-07-29T08:57:57;4.43;;;3.22;;
29196;SDS011;62796;42.654;23.316;2023-07-29T09:00:23;5.35;;;2.80;;
29196;SDS011;62796;42.654;23.316;2023-07-29T09:02:49;4.20;;;2.75;;
29196;SDS011;62796;42.654;23.316;2023-07-29T09:05:16;4.88;;;3.60;;
29196;SDS011;62796;42.654;23.316;2023-07-29T09:07:41;3.55;;;3.00;;
29196;SDS011;62796;42.654;23.316;2023-07-29T09:10:09;4.65;;;2.60;;
29196;SDS011;62796;42.654;23.316;2023-07-29T09:12:38;4.43;;;2.55;;
29196;SDS011;62796;42.654;23.316;2023-07-29T09:15:04;3.95;;;2.30;;
29196;SDS011;62796;42.654;23.316;2023-07-29T09:17:33;4.63;;;2.60;;
29196;SDS011;62796;42.654;23.316;2023-07-29T09:19:58;3.60;;;2.72;;
29196;SDS011;62796;42.654;23.316;2023-07-29T09:22:24;4.25;;;2.50;;
29196;SDS011;62796;42.654;23.316;2023-07-29T09:24:52;5.45;;;3.20;;
29196;SDS011;62796;42.654;23.316;2023-07-29T09:27:24;8.00;;;2.85;;
29196;SDS011;62796;42.654;23.316;2023-07-29T09:29:56;3.65;;;2.58;;
29196;SDS011;62796;42.654;23.316;2023-07-29T09:32:23;4.10;;;3.00;;
29196;SDS011;62796;42.654;23.316;2023-07-29T09:34:50;5.43;;;2.38;;
29196;SDS011;62796;42.654;23.316;2023-07-29T09:37:16;3.45;;;2.00;;
29196;SDS011;62796;42.654;23.316;2023-07-29T09:39:45;3.70;;;2.28;;
29196;SDS011;62796;42.654;23.316;2023-07-29T09:42:17;3.70;;;2.20;;
29196;SDS011;62796;42.654;23.316;2023-07-29T09:44:44;5.55;;;2.40;;
29196;SDS011;62796;42.654;23.316;2023-07-29T09:47:09;3.33;;;2.50;;
29196;SDS011;62796;42.654;23.316;2023-07-29T09:49:43;5.05;;;2.30;;
29196;SDS011;62796;42.654;23.316;2023-07-29T09:52:08;6.18;;;2.13;;
29196;SDS011;62796;42.654;23.316;2023-07-29T09:54:36;3.38;;;2.15;;
29196;SDS011;62796;42.654;23.316;2023-07-29T09:57:02;5.65;;;2.58;;
29196;SDS011;62796;42.654;23.316;2023-07-29T09:59:27;5.85;;;2.63;;
29196;SDS011;62796;42.654;23.316;2023-07-29T10:01:53;2.70;;;2.00;;
29196;SDS011;62796;42.654;23.316;2023-07-29T10:04:19;6.07;;;1.90;;
29196;SDS011;62796;42.654;23.316;2023-07-29T10:06:45;3.17;;;2.10;;
29196;SDS011;62796;42.654;23.316;2023-07-29T10:09:11;2.55;;;1.70;;
29196;SDS011;62796;42.654;23.316;2023-07-29T10:11:37;2.03;;;1.60;;
29196;SDS011;62796;42.654;23.316;2023-07-29T10:14:04;3.72;;;1.42;;
29196;SDS011;62796;42.654;23.316;2023-07-29T10:16:30;2.00;;;1.40;;
29196;SDS011;62796;42.654;23.316;2023-07-29T10:18:56;5.13;;;1.52;;
29196;SDS011;62796;42.654;23.316;2023-07-29T10:21:22;4.18;;;1.38;;
29196;SDS011;62796;42.654;23.316;2023-07-29T10:23:48;4.03;;;1.75;;
29196;SDS011;62796;42.654;23.316;2023-07-29T10:26:18;1.75;;;1.25;;
29196;SDS011;62796;42.654;23.316;2023-07-29T10:28:46;1.58;;;1.42;;
29196;SDS011;62796;42.654;23.316;2023-07-29T10:31:13;3.85;;;1.50;;
29196;SDS011;62796;42.654;23.316;2023-07-29T10:33:41;2.42;;;1.30;;
29196;SDS011;62796;42.654;23.316;2023-07-29T10:36:07;10.25;;;2.15;;
29196;SDS011;62796;42.654;23.316;2023-07-29T10:38:33;11.15;;;2.10;;
29196;SDS011;62796;42.654;23.316;2023-07-29T10:40:59;4.03;;;1.50;;
29196;SDS011;62796;42.654;23.316;2023-07-29T10:43:26;2.83;;;1.60;;
29196;SDS011;62796;42.654;23.316;2023-07-29T10:45:56;4.10;;;1.73;;
29196;SDS011;62796;42.654;23.316;2023-07-29T10:54:04;2.65;;;1.40;;
29196;SDS011;62796;42.654;23.316;2023-07-29T10:56:43;1.98;;;1.50;;
29196;SDS011;62796;42.654;23.316;2023-07-29T11:01:38;1.55;;;1.10;;
29196;SDS011;62796;42.654;23.316;2023-07-29T11:09:51;1.55;;;1.45;;
29196;SDS011;62796;42.654;23.316;2023-07-29T11:17:35;1.63;;;1.15;;
29196;SDS011;62796;42.654;23.316;2023-07-29T11:20:04;1.63;;;1.52;;
29196;SDS011;62796;42.654;23.316;2023-07-29T11:22:32;3.03;;;1.50;;
29196;SDS011;62796;42.654;23.316;2023-07-29T11:24:58;3.38;;;1.60;;
29196;SDS011;62796;42.654;23.316;2023-07-29T11:27:23;2.35;;;1.75;;
29196;SDS011;62796;42.654;23.316;2023-07-29T11:29:49;1.50;;;1.40;;
29196;SDS011;62796;42.654;23.316;2023-07-29T11:32:15;1.40;;;1.30;;
29196;SDS011;62796;42.654;23.316;2023-07-29T11:34:41;1.85;;;1.75;;
29196;SDS011;62796;42.654;23.316;2023-07-29T11:37:09;2.67;;;1.48;;
29196;SDS011;62796;42.654;23.316;2023-07-29T11:39:39;2.45;;;1.33;;
29196;SDS011;62796;42.654;23.316;2023-07-29T11:42:06;4.68;;;1.60;;
29196;SDS011;62796;42.654;23.316;2023-07-29T11:44:32;1.70;;;1.60;;
29196;SDS011;62796;42.654;23.316;2023-07-29T11:46:57;2.38;;;1.77;;
29196;SDS011;62796;42.654;23.316;2023-07-29T11:49:22;3.50;;;1.65;;
29196;SDS011;62796;42.654;23.316;2023-07-29T11:51:48;3.55;;;1.90;;
29196;SDS011;62796;42.654;23.316;2023-07-29T11:54:14;3.63;;;1.88;;
29196;SDS011;62796;42.654;23.316;2023-07-29T11:56:40;3.05;;;1.65;;
29196;SDS011;62796;42.654;23.316;2023-07-29T11:59:06;2.63;;;1.80;;
29196;SDS011;62796;42.654;23.316;2023-07-29T12:01:31;4.43;;;1.60;;
29196;SDS011;62796;42.654;23.316;2023-07-29T12:03:58;5.22;;;1.88;;
29196;SDS011;62796;42.654;23.316;2023-07-29T12:06:24;2.95;;;1.85;;
29196;SDS011;62796;42.654;23.316;2023-07-29T12:08:50;3.25;;;1.70;;
29196;SDS011;62796;42.654;23.316;2023-07-29T12:11:16;2.58;;;1.48;;
29196;SDS011;62796;42.654;23.316;2023-07-29T12:13:42;3.33;;;1.80;;
29196;SDS011;62796;42.654;23.316;2023-07-29T12:16:08;1.75;;;1.45;;
29196;SDS011;62796;42.654;23.316;2023-07-29T12:18:33;1.88;;;1.40;;
29196;SDS011;62796;42.654;23.316;2023-07-29T12:20:59;3.83;;;1.48;;
29196;SDS011;62796;42.654;23.316;2023-07-29T12:23:25;1.50;;;1.30;;
29196;SDS011;62796;42.654;23.316;2023-07-29T12:25:57;1.30;;;1.20;;
29196;SDS011;62796;42.654;23.316;2023-07-29T12:28:24;3.78;;;1.55;;
29196;SDS011;62796;42.654;23.316;2023-07-29T12:30:56;1.63;;;1.52;;
29196;SDS011;62796;42.654;23.316;2023-07-29T12:33:37;1.83;;;1.55;;
29196;SDS011;62796;42.654;23.316;2023-07-29T12:36:04;3.47;;;1.35;;
29196;SDS011;62796;42.654;23.316;2023-07-29T12:38:30;2.63;;;1.58;;
29196;SDS011;62796;42.654;23.316;2023-07-29T12:40:56;2.67;;;1.70;;
29196;SDS011;62796;42.654;23.316;2023-07-29T12:43:21;3.90;;;1.70;;
29196;SDS011;62796;42.654;23.316;2023-07-29T12:45:50;3.03;;;1.80;;
29196;SDS011;62796;42.654;23.316;2023-07-29T12:48:16;2.20;;;1.77;;
29196;SDS011;62796;42.654;23.316;2023-07-29T12:50:42;3.80;;;1.60;;
29196;SDS011;62796;42.654;23.316;2023-07-29T12:53:08;1.90;;;1.70;;
29196;SDS011;62796;42.654;23.316;2023-07-29T12:55:36;2.92;;;2.00;;
29196;SDS011;62796;42.654;23.316;2023-07-29T12:58:02;2.80;;;1.70;;
29196;SDS011;62796;42.654;23.316;2023-07-29T13:00:28;5.65;;;1.83;;
29196;SDS011;62796;42.654;23.316;2023-07-29T13:02:54;15.27;;;2.35;;
29196;SDS011;62796;42.654;23.316;2023-07-29T13:05:19;2.05;;;1.45;;
29196;SDS011;62796;42.654;23.316;2023-07-29T13:07:45;1.80;;;1.60;;
29196;SDS011;62796;42.654;23.316;2023-07-29T13:10:11;5.90;;;1.58;;
29196;SDS011;62796;42.654;23.316;2023-07-29T13:12:37;1.67;;;1.58;;
29196;SDS011;62796;42.654;23.316;2023-07-29T13:15:03;4.38;;;2.00;;
29196;SDS011;62796;42.654;23.316;2023-07-29T13:17:29;2.95;;;1.33;;
29196;SDS011;62796;42.654;23.316;2023-07-29T13:19:54;1.95;;;1.50;;
29196;SDS011;62796;42.654;23.316;2023-07-29T13:22:20;4.07;;;1.52;;
29196;SDS011;62796;42.654;23.316;2023-07-29T13:24:46;3.17;;;1.70;;
29196;SDS011;62796;42.654;23.316;2023-07-29T13:27:11;3.60;;;1.70;;
29196;SDS011;62796;42.654;23.316;2023-07-29T13:29:37;4.55;;;1.40;;
29196;SDS011;62796;42.654;23.316;2023-07-29T13:32:02;4.40;;;1.60;;
29196;SDS011;62796;42.654;23.316;2023-07-29T13:34:28;2.25;;;1.73;;
29196;SDS011;62796;42.654;23.316;2023-07-29T13:36:53;3.85;;;1.85;;
29196;SDS011;62796;42.654;23.316;2023-07-29T13:39:19;2.13;;;1.73;;
29196;SDS011;62796;42.654;23.316;2023-07-29T13:41:44;2.72;;;2.13;;
29196;SDS011;62796;42.654;23.316;2023-07-29T13:44:10;3.65;;;2.30;;
29196;SDS011;62796;42.654;23.316;2023-07-29T13:46:35;6.25;;;2.38;;
29196;SDS011;62796;42.654;23.316;2023-07-29T13:49:00;2.97;;;1.92;;
29196;SDS011;62796;42.654;23.316;2023-07-29T13:51:27;2.42;;;2.22;;
29196;SDS011;62796;42.654;23.316;2023-07-29T13:53:52;2.70;;;2.10;;
29196;SDS011;62796;42.654;23.316;2023-07-29T13:56:17;2.15;;;1.75;;
29196;SDS011;62796;42.654;23.316;2023-07-29T13:58:43;3.55;;;2.40;;
29196;SDS011;62796;42.654;23.316;2023-07-29T14:01:08;2.67;;;1.80;;
29196;SDS011;62796;42.654;23.316;2023-07-29T14:03:34;2.25;;;2.03;;
29196;SDS011;62796;42.654;23.316;2023-07-29T14:05:59;4.78;;;2.45;;
29196;SDS011;62796;42.654;23.316;2023-07-29T14:08:24;7.03;;;2.50;;
29196;SDS011;62796;42.654;23.316;2023-07-29T14:10:50;3.47;;;2.28;;
29196;SDS011;62796;42.654;23.316;2023-07-29T14:13:15;5.22;;;2.72;;
29196;SDS011;62796;42.654;23.316;2023-07-29T14:15:40;3.80;;;2.20;;
29196;SDS011;62796;42.654;23.316;2023-07-29T14:18:06;5.00;;;2.10;;
29196;SDS011;62796;42.654;23.316;2023-07-29T14:20:32;4.75;;;2.35;;
29196;SDS011;62796;42.654;23.316;2023-07-29T14:22:57;4.63;;;1.95;;
29196;SDS011;62796;42.654;23.316;2023-07-29T14:25:23;3.95;;;2.00;;
29196;SDS011;62796;42.654;23.316;2023-07-29T14:27:48;3.30;;;1.75;;
29196;SDS011;62796;42.654;23.316;2023-07-29T14:30:14;3.50;;;1.90;;
29196;SDS011;62796;42.654;23.316;2023-07-29T14:32:39;4.30;;;1.73;;
29196;SDS011;62796;42.654;23.316;2023-07-29T14:35:08;1.95;;;1.70;;
29196;SDS011;62796;42.654;23.316;2023-07-29T14:37:34;3.75;;;1.90;;
29196;SDS011;62796;42.654;23.316;2023-07-29T14:39:59;6.70;;;1.98;;
29196;SDS011;62796;42.654;23.316;2023-07-29T14:42:25;2.00;;;1.80;;
29196;SDS011;62796;42.654;23.316;2023-07-29T14:44:51;5.45;;;1.92;;
29196;SDS011;62796;42.654;23.316;2023-07-29T14:47:16;1.88;;;1.77;;
29196;SDS011;62796;42.654;23.316;2023-07-29T14:49:42;1.60;;;1.50;;
29196;SDS011;62796;42.654;23.316;2023-07-29T14:52:07;3.00;;;1.85;;
29196;SDS011;62796;42.654;23.316;2023-07-29T14:54:32;3.70;;;1.95;;
29196;SDS011;62796;42.654;23.316;2023-07-29T14:56:58;5.45;;;2.08;;